PABL

Details ICAO PABL (BKC)
Name BUCKLAND
Region USA (Alaska)
Timezone America/Anchorage (UTC-8.0)
Plans Departing 0
Arriving 1
Stats Elevation 29 ft / 9 m (AMSL)
Location 65.981565° -161.149127°
Runways 2
Magnetic Variation 11.995° E
Sunrise 2018-05-22 12:38:26 UTC / 2018-05-22 04:38:26 Local
Sunset 2018-05-23 08:47:02 UTC / 2018-05-23 00:47:02 Local
Advertisement - Login to hide

Runways

ID Width Length Bearing (true) Bearing (mag) Surface Threshold Offset Overrun Length
10 75 ft / 23 m 3,189 ft / 972 m 121.81° 109.82° Gravel 0 ft / 0 m 300 ft / 91 m
11 75 ft / 23 m 3,203 ft / 976 m 121.99° 110.00° Gravel 0 ft / 0 m 0 ft / 0 m
28 75 ft / 23 m 3,189 ft / 972 m 301.83° 289.84° Gravel 0 ft / 0 m 300 ft / 91 m
29 75 ft / 23 m 3,203 ft / 976 m 302.01° 290.02° Gravel 0 ft / 0 m 0 ft / 0 m

Map

Weather


0- 5 10 15 20 25 30 35+ Temperature / ° C

Clouds and Precipitation
Forecast for 2018-05-23 06:00 UTC. Updated 2 hours ago

Ground ~20,000 ft ~40,000 ft Winds

METAR

PABL 230656Z AUTO 32007KT 10SM CLR 04/01 A2964 RMK AO2 SLP039 T00440006

TAF

Not found

Frequencies

Recorded 135.15 MHz AWOS 3
Unicom 122.30 MHz RCO Kotzebue
Unicom 122.90 MHz CTAF
Approach 119.20 MHz Anchorage
Warning: Do not use this data for real-world aviation or navigation. No guarantee of current accuracy is given.